Milwaukee, Wisconsin
Current Conditions -  °F | °C
As of 5:52 PM on Friday 28 Nov 2014 (Local Time) from KMKE Reporting Station
Broken Clouds Broken Clouds  
Wind Chill: 22°   Ceiling: 1800
Heat Index: 30°   Visibility: 10mi
Dew Point: 20°   Wind: 8mph
Humidity: 66%   Direction: 170°S
Pressure: 29.94"   Gusts: NA
Location:  43.04°N, 87.91°W
Report Text: KMKE 282352Z 17007KT 10SM BKN018 M01/M07 A2994 RMK AO2 SLP151 4/002 T10111067 11011 21039 58017
Loading
Personal Weather Stations






























Interactive Weather Map New forecast layout! Learn more

10-Day Weather Forecast

Advertisements
Track Severe Weather on mobile